Time;durP1;ratioP1;P1;durP2;ratioP2;P2;SDS_P1;SDS_P2;PMS_P1;PMS_P2;Temp;Humidity;BMP_temperature;BMP_pressure;BME280_temperature;BME280_humidity;BME280_pressure;Samples;Min_cycle;Max_cycle;Signal;HPM_P1;HPM_P2
2024/04/25 00:31:06;;;;;;;1.30;0.70;;;11.40;99.90;;;11.55;54.01;100327.31;6006868;22;94735;-31
2024/04/25 00:34:04;;;;;;;2.77;0.77;;;11.40;99.90;;;11.41;54.93;100329.72;5810648;22;93396;-32
2024/04/25 00:36:39;;;;;;;5.70;0.77;;;11.20;99.90;;;11.51;53.26;100330.19;5983326;21;98357;-31
2024/04/25 00:39:35;;;;;;;3.07;1.00;;;11.40;99.90;;;11.48;54.82;100323.25;5891938;22;99930;-35
2024/04/25 00:43:01;;;;;;;1.43;0.83;;;11.20;99.90;;;11.71;53.90;100318.69;5964997;22;93605;-33
2024/04/25 00:45:35;;;;;;;1.20;0.70;;;11.40;99.90;;;11.66;54.52;100320.72;5817113;22;93928;-36
2024/04/25 00:48:09;;;;;;;1.77;0.50;;;11.40;99.90;;;11.80;52.50;100320.97;5838669;22;100088;-31
2024/04/25 00:50:36;;;;;;;3.20;0.90;;;11.60;99.90;;;12.07;53.48;100319.69;5952277;22;96479;-33
2024/04/25 00:53:30;;;;;;;2.20;0.90;;;11.80;99.90;;;12.12;53.56;100312.38;5927855;22;105160;-34
2024/04/25 00:55:58;;;;;;;1.37;1.10;;;11.70;99.90;;;12.15;51.31;100312.28;6040485;21;98385;-33
2024/04/25 00:58:48;;;;;;;1.57;1.00;;;11.90;99.90;;;12.19;53.24;100318.25;6189603;22;124649;-35
2024/04/25 01:01:24;;;;;;;2.60;0.90;;;11.80;99.90;;;12.14;52.93;100315.81;6115696;22;97295;-36
2024/04/25 01:04:25;;;;;;;4.10;1.30;;;11.80;99.90;;;12.42;52.89;100314.50;6023696;22;95117;-37
2024/04/25 01:07:37;;;;;;;3.10;0.87;;;12.00;99.90;;;12.31;51.09;100311.53;5888698;22;95447;-34
2024/04/25 01:10:06;;;;;;;1.73;0.97;;;12.00;99.90;;;12.13;52.10;100315.88;5992299;22;98550;-34
2024/04/25 01:12:32;;;;;;;7.37;1.10;;;11.90;99.90;;;11.75;52.39;100312.38;6111080;22;98928;-31
2024/04/25 01:16:01;;;;;;;1.40;1.00;;;11.70;99.90;;;11.88;54.18;100308.28;6111113;21;98412;-40
2024/04/25 01:18:29;;;;;;;2.60;0.80;;;11.60;99.90;;;11.76;52.26;100309.66;6030038;21;96561;-32
2024/04/25 01:20:56;;;;;;;5.67;1.33;;;11.70;99.90;;;11.68;52.37;100311.78;6078412;22;101706;-33
2024/04/25 01:23:39;;;;;;;1.07;0.80;;;11.50;99.90;;;11.62;53.96;100307.66;6267502;21;95966;-32
2024/04/25 01:26:07;;;;;;;2.57;1.10;;;11.40;99.90;;;11.68;53.70;100306.50;6139588;21;97240;-34
2024/04/25 01:28:40;;;;;;;6.33;1.30;;;11.50;99.90;;;11.58;54.53;100308.72;6219928;22;93745;-32
2024/04/25 01:31:07;;;;;;;4.17;1.00;;;11.40;99.90;;;11.36;54.68;100305.31;6251627;22;98227;-34
2024/04/25 01:33:35;;;;;;;3.60;0.70;;;11.20;99.90;;;11.30;54.92;100301.16;6290824;22;93644;-36
2024/04/25 01:36:07;;;;;;;3.50;1.23;;;11.20;99.90;;;11.31;55.06;100302.03;6183558;22;104852;-32
2024/04/25 01:38:33;;;;;;;2.17;0.63;;;11.10;99.90;;;11.54;55.87;100304.47;6283197;22;93562;-39
2024/04/25 01:41:13;;;;;;;0.70;0.70;;;11.20;99.90;;;11.45;55.31;100310.19;6269394;22;94449;-32
2024/04/25 01:44:11;;;;;;;4.13;0.90;;;11.20;99.90;;;11.50;55.53;100308.19;6100082;22;101658;-33
2024/04/25 01:47:08;;;;;;;1.23;1.00;;;11.20;99.90;;;11.54;55.21;100304.47;5948617;22;93813;-33
2024/04/25 01:49:47;;;;;;;1.50;0.90;;;11.30;99.90;;;11.75;55.14;100292.09;6099217;22;94490;-33
2024/04/25 01:52:31;;;;;;;5.23;0.90;;;11.40;99.90;;;11.96;54.72;100292.91;5993986;22;99888;-35
2024/04/25 01:55:10;;;;;;;1.70;1.10;;;11.70;99.90;;;11.92;54.60;100301.91;5945536;22;97992;-32
2024/04/25 01:58:43;;;;;;;6.13;1.07;;;11.70;99.90;;;12.00;53.94;100305.03;5910440;22;95987;-36
2024/04/25 02:01:30;;;;;;;2.73;0.80;;;11.60;99.90;;;11.93;54.53;100300.13;6191953;22;94250;-34
2024/04/25 02:03:58;;;;;;;2.00;1.00;;;11.60;99.90;;;11.93;54.18;100298.34;6024231;22;101156;-34
2024/04/25 02:06:26;;;;;;;0.50;0.50;;;11.60;99.90;;;11.62;53.18;100297.06;6010702;22;99404;-36
2024/04/25 02:08:54;;;;;;;0.57;0.50;;;11.50;99.90;;;11.47;54.11;100292.50;6153583;22;96158;-33
2024/04/25 02:11:22;;;;;;;1.77;0.73;;;11.30;99.90;;;11.53;54.22;100292.19;6248891;22;93945;-33
2024/04/25 02:13:48;;;;;;;1.53;0.70;;;11.30;99.90;;;11.67;55.51;100296.00;6152115;22;96267;-34
2024/04/25 02:16:17;;;;;;;1.40;0.87;;;11.30;99.90;;;11.79;54.63;100292.84;6128535;22;119215;-36
2024/04/25 02:18:43;;;;;;;1.50;0.73;;;11.40;99.90;;;11.99;53.49;100294.53;6214854;22;93372;-35
2024/04/25 02:27:00;;;;;;;2.67;0.53;;;12.20;99.90;;;12.29;52.26;100300.16;6098897;22;94339;-33
2024/04/25 02:29:57;;;;;;;1.17;0.80;;;12.10;99.90;;;12.44;53.15;100295.00;6174316;21;113757;-35
2024/04/25 02:32:29;;;;;;;1.37;0.90;;;12.00;99.90;;;12.54;52.69;100295.38;5995819;21;96754;-34
2024/04/25 02:35:27;;;;;;;1.90;1.00;;;12.20;99.90;;;12.53;52.58;100293.66;6098686;22;100886;-35
2024/04/25 02:38:22;;;;;;;2.40;1.07;;;12.10;99.90;;;12.58;52.59;100286.34;5952993;22;101836;-35
2024/04/25 02:40:48;;;;;;;3.00;1.27;;;12.20;99.90;;;12.46;52.78;100289.63;5864333;22;102648;-34
2024/04/25 02:43:16;;;;;;;2.17;0.93;;;12.00;99.90;;;12.55;52.26;100289.16;6119675;21;105536;-32
2024/04/25 02:45:58;;;;;;;3.20;1.53;;;12.10;99.90;;;12.56;52.92;100285.56;6127729;21;103612;-33
2024/04/25 02:48:45;;;;;;;2.20;1.43;;;12.10;99.90;;;12.54;52.33;100282.16;6101344;21;109949;-34
2024/04/25 02:51:15;;;;;;;2.17;1.27;;;12.10;99.90;;;12.46;51.33;100284.34;6086145;22;95050;-33
2024/04/25 02:53:54;;;;;;;3.03;1.50;;;12.00;99.90;;;12.54;52.06;100284.81;6071470;22;112514;-35
2024/04/25 02:56:22;;;;;;;2.80;1.53;;;12.10;99.90;;;12.52;52.20;100289.31;6223316;21;117760;-34
2024/04/25 02:59:26;;;;;;;3.20;1.20;;;12.10;99.90;;;12.40;51.65;100285.47;6069247;21;97134;-33
2024/04/25 03:02:19;;;;;;;4.37;1.60;;;12.00;99.90;;;12.49;53.18;100284.19;6065675;22;106280;-34
2024/04/25 03:04:49;;;;;;;2.93;1.57;;;12.00;99.90;;;12.62;52.52;100284.44;6044535;22;98777;-39
2024/04/25 03:07:15;;;;;;;4.07;1.00;;;12.10;99.90;;;12.68;52.81;100290.25;6245325;21;128063;-34
2024/04/25 03:09:41;;;;;;;8.37;1.70;;;12.20;99.90;;;12.70;51.31;100288.38;6359004;21;116973;-37
2024/04/25 03:12:11;;;;;;;6.07;1.43;;;12.30;99.90;;;12.65;50.23;100293.06;6368880;21;102867;-38
2024/04/25 03:14:45;;;;;;;5.47;1.60;;;12.30;99.90;;;12.69;52.55;100286.69;6190764;21;117576;-34
2024/04/25 03:17:33;;;;;;;5.33;1.53;;;12.20;99.90;;;12.61;51.09;100282.72;5859570;22;115315;-34
2024/04/25 03:20:14;;;;;;;3.50;1.30;;;12.20;99.90;;;12.40;50.94;100274.91;6086716;22;100851;-35
2024/04/25 03:22:40;;;;;;;4.50;1.87;;;12.10;99.90;;;12.51;53.17;100277.03;6011370;22;112840;-37
2024/04/25 03:25:07;;;;;;;4.57;1.40;;;12.00;99.90;;;12.60;53.14;100281.00;6055784;22;109041;-34
2024/04/25 03:27:47;;;;;;;4.07;1.30;;;12.10;99.90;;;12.45;52.34;100279.97;6009395;22;124097;-33
2024/04/25 03:30:15;;;;;;;4.33;1.30;;;12.00;99.90;;;12.49;51.97;100277.09;6052819;22;93881;-35
2024/04/25 03:32:48;;;;;;;3.63;1.53;;;12.00;99.90;;;12.62;52.04;100277.34;6216758;22;101497;-35
2024/04/25 03:35:14;;;;;;;3.20;1.30;;;12.20;99.90;;;12.69;52.39;100270.81;6182966;22;97839;-32
2024/04/25 03:38:33;;;;;;;5.47;1.57;;;12.30;99.90;;;12.70;52.46;100272.50;6247867;21;122162;-34
2024/04/25 03:41:02;;;;;;;2.43;1.60;;;12.30;99.90;;;12.68;52.39;100279.69;5939233;22;97326;-33
2024/04/25 03:43:30;;;;;;;6.80;1.30;;;12.30;99.90;;;12.44;50.51;100275.59;6277121;21;93553;-31
2024/04/25 03:46:48;;;;;;;6.13;1.37;;;12.10;99.90;;;12.63;52.64;100276.41;6319622;21;107216;-33
2024/04/25 03:53:11;;;;;;;1.83;1.10;;;12.20;99.90;;;12.63;52.06;100276.41;6246425;21;96971;-31
2024/04/25 03:55:36;;;;;;;2.23;1.47;;;12.20;99.90;;;12.72;52.21;100275.06;6305090;21;93641;-34
2024/04/25 03:58:39;;;;;;;4.30;1.50;;;12.30;99.90;;;12.63;51.89;100276.41;6319291;21;108213;-31
2024/04/25 04:01:13;;;;;;;3.73;1.37;;;12.20;99.90;;;12.64;52.19;100280.78;6229225;21;97037;-36
2024/04/25 04:03:39;;;;;;;6.70;2.07;;;12.20;99.90;;;12.71;52.07;100283.94;6266339;21;98778;-31
2024/04/25 04:06:05;;;;;;;3.27;1.67;;;12.40;99.90;;;12.63;52.17;100281.72;6259373;22;93723;-34
2024/04/25 04:08:48;;;;;;;2.57;1.20;;;12.30;99.90;;;12.64;51.96;100280.78;6213947;22;93894;-32
2024/04/25 04:11:14;;;;;;;3.53;1.27;;;12.20;99.90;;;12.49;50.59;100285.03;6128302;22;100308;-37
2024/04/25 04:13:49;;;;;;;4.20;1.67;;;12.10;99.90;;;12.62;51.65;100293.22;6296656;21;123858;-32
2024/04/25 04:16:21;;;;;;;3.77;1.80;;;12.20;99.90;;;12.62;51.18;100287.94;6230927;21;101924;-36
2024/04/25 04:19:03;;;;;;;2.80;1.73;;;12.20;99.90;;;12.58;50.03;100283.69;6242396;21;99502;-33
2024/04/25 04:21:37;;;;;;;3.33;1.37;;;12.10;99.90;;;12.37;51.11;100282.13;6240266;21;123387;-33
2024/04/25 04:24:10;;;;;;;5.83;1.80;;;11.90;99.90;;;12.46;52.59;100285.19;5826304;22;99449;-34
2024/04/25 04:26:37;;;;;;;2.80;1.67;;;11.80;99.90;;;12.49;52.13;100289.47;6146263;22;94668;-35
2024/04/25 04:29:05;;;;;;;3.43;1.63;;;11.80;99.90;;;12.60;52.60;100296.88;6145386;21;94310;-31
2024/04/25 04:32:01;;;;;;;4.57;1.60;;;11.90;99.90;;;12.56;50.33;100298.81;6099693;22;123659;-32
2024/04/25 04:34:44;;;;;;;4.43;1.33;;;12.00;99.90;;;12.57;52.28;100303.16;5849190;22;99122;-34
2024/04/25 04:38:00;;;;;;;2.80;1.33;;;11.80;99.90;;;12.58;51.62;100298.72;6236843;22;93366;-35
2024/04/25 04:40:26;;;;;;;6.07;2.40;;;11.80;99.90;;;12.50;51.79;100302.63;5824172;22;97722;-34
2024/04/25 04:43:29;;;;;;;8.57;2.67;;;11.70;99.90;;;12.55;52.81;100304.19;6002641;22;99516;-37
2024/04/25 04:46:36;;;;;;;5.53;1.77;;;11.60;99.90;;;12.60;52.25;100302.19;6158830;22;98337;-32
2024/04/25 04:49:13;;;;;;;2.43;1.50;;;11.70;99.90;;;12.63;51.41;100297.59;6131659;22;93907;-32
2024/04/25 04:51:41;;;;;;;7.07;1.70;;;11.80;99.90;;;12.71;52.37;100300.69;6162294;22;94715;-35
2024/04/25 04:54:15;;;;;;;5.17;1.80;;;11.90;99.90;;;12.49;51.72;100300.06;6134289;21;95507;-34
2024/04/25 04:57:13;;;;;;;5.40;1.60;;;11.70;99.90;;;12.67;52.52;100300.94;6023963;22;99898;-34
2024/04/25 04:59:45;;;;;;;4.53;2.23;;;11.80;99.90;;;12.68;52.04;100300.84;6050403;22;93485;-38
2024/04/25 05:02:18;;;;;;;5.40;2.43;;;11.90;99.90;;;12.62;50.28;100300.31;6152035;22;107977;-32
2024/04/25 05:05:09;;;;;;;5.10;1.53;;;11.90;99.90;;;12.73;52.18;100295.31;6062946;22;99340;-34
2024/04/25 05:11:29;;;;;;;3.70;1.67;;;12.00;99.90;;;12.78;51.96;100296.81;5714478;23;93380;-33
2024/04/25 05:14:02;;;;;;;3.40;1.70;;;11.90;99.90;;;12.69;50.19;100297.25;5974706;22;93575;-32
2024/04/25 05:16:33;;;;;;;2.80;1.60;;;11.90;99.90;;;12.84;51.94;100300.06;6013889;22;100490;-32
2024/04/25 05:19:07;;;;;;;2.97;1.60;;;12.00;99.90;;;12.69;51.40;100307.00;6174282;22;99444;-32
2024/04/25 05:21:32;;;;;;;4.27;1.50;;;11.90;99.90;;;12.58;52.79;100304.00;6231481;22;93486;-33
2024/04/25 05:24:01;;;;;;;4.23;1.40;;;11.70;99.90;;;12.68;52.34;100300.84;6317199;22;105176;-33
2024/04/25 05:26:28;;;;;;;4.33;1.60;;;11.80;99.90;;;12.65;52.23;100306.31;6250814;22;100195;-32
2024/04/25 05:28:54;;;;;;;6.00;1.50;;;11.80;99.90;;;12.69;52.34;100307.84;6177912;22;94097;-34
2024/04/25 05:32:23;;;;;;;5.17;2.03;;;11.90;99.90;;;12.72;51.96;100297.09;6275296;21;103680;-34
2024/04/25 05:35:07;;;;;;;6.70;1.97;;;12.00;99.90;;;12.72;52.37;100296.25;5810256;22;98415;-34
2024/04/25 05:37:37;;;;;;;6.73;1.80;;;11.90;99.90;;;12.64;49.89;100288.72;6017510;22;97740;-33
2024/04/25 05:40:10;;;;;;;2.73;1.30;;;12.00;99.90;;;12.70;52.13;100293.69;6277743;21;98306;-33
2024/04/25 05:43:19;;;;;;;;;;;;;;;;;;;;;
2024/04/25 05:45:45;;;;;;;4.67;1.53;;;12.00;99.90;;;12.59;50.69;100289.88;6147504;21;108650;-32
2024/04/25 05:52:03;;;;;;;3.60;1.70;;;11.90;99.90;;;12.47;52.79;100296.63;6228474;22;94456;-33
2024/04/25 05:54:34;;;;;;;2.20;1.07;;;11.70;99.90;;;12.45;52.95;100296.72;6133828;22;94279;-34
2024/04/25 05:57:21;;;;;;;2.10;1.27;;;11.70;99.90;;;12.34;52.91;100284.94;6079275;22;93568;-31
2024/04/25 06:00:12;;;;;;;4.47;1.37;;;11.60;99.90;;;12.53;52.93;100291.03;6018986;21;99741;-39
2024/04/25 06:02:51;;;;;;;3.47;1.40;;;11.70;99.90;;;12.69;51.78;100291.97;5924141;22;98483;-34
2024/04/25 06:06:08;;;;;;;2.60;1.03;;;12.10;99.90;;;12.65;52.44;100300.16;6046295;22;93097;-37
2024/04/25 06:13:22;;;;;;;1.67;1.00;;;12.20;99.90;;;12.96;50.99;100299.47;6081456;22;93621;-34
2024/04/25 06:16:57;;;;;;;1.87;0.80;;;12.40;99.90;;;12.96;51.25;100296.81;5830920;22;97499;-32
2024/04/25 06:20:16;;;;;;;1.70;0.83;;;12.50;99.90;;;12.98;51.52;100292.28;6068475;22;96236;-33
2024/04/25 06:22:58;;;;;;;4.03;0.83;;;12.40;99.90;;;12.79;48.84;100293.22;5913906;22;93678;-34
2024/04/25 06:25:24;;;;;;;2.37;1.10;;;12.30;99.90;;;12.86;51.88;100291.13;5990428;22;97552;-34
2024/04/25 06:28:33;;;;;;;1.40;0.70;;;12.20;99.90;;;12.82;50.52;100295.72;5995307;22;111298;-32
2024/04/25 06:31:08;;;;;;;1.57;1.10;;;12.30;99.90;;;12.93;48.88;100294.31;5938559;22;96986;-34
2024/04/25 06:35:02;;;;;;;1.37;1.10;;;12.40;99.90;;;12.71;50.85;100298.03;6080296;22;95080;-32
2024/04/25 06:42:44;;;;;;;3.80;1.20;;;12.60;99.90;;;13.04;49.60;100298.16;6327953;21;95195;-37
2024/04/25 06:45:17;;;;;;;1.87;1.27;;;12.70;99.90;;;13.14;50.93;100298.50;6085469;22;95539;-40
2024/04/25 06:47:50;;;;;;;3.13;1.57;;;12.80;99.90;;;13.06;49.54;100295.41;6328230;21;101297;-32
2024/04/25 06:54:29;;;;;;;3.23;1.50;;;12.50;99.90;;;12.80;50.67;100300.22;6173096;21;95059;-35
2024/04/25 06:58:00;;;;;;;;;;;;;;;;;;;;;
2024/04/25 07:04:49;;;;;;;4.73;1.57;;;12.20;99.90;;;12.81;51.40;100301.09;5952570;23;93451;-32
2024/04/25 07:15:42;;;;;;;3.43;2.00;;;12.40;99.90;;;12.89;51.64;100298.06;6054500;22;93143;-31
2024/04/25 07:25:29;;;;;;;5.07;2.20;;;12.60;99.90;;;12.97;49.18;100295.88;5993391;22;93430;-32
2024/04/25 07:31:43;;;;;;;4.03;2.57;;;12.80;99.90;;;12.92;50.20;100292.63;6161300;22;94737;-32
2024/04/25 07:34:26;;;;;;;8.33;2.33;;;12.70;99.90;;;12.88;50.30;100285.78;6124545;22;93694;-34
2024/04/25 07:36:58;;;;;;;5.67;2.53;;;12.60;99.90;;;12.92;51.28;100288.19;5946828;22;94993;-39
2024/04/25 07:39:33;;;;;;;6.40;3.27;;;12.50;99.90;;;13.01;51.23;100286.84;6135950;22;95928;-34
2024/04/25 07:42:21;;;;;;;4.30;2.60;;;12.60;99.90;;;12.97;50.94;100290.56;6012922;22;97891;-34
2024/04/25 07:45:10;;;;;;;5.70;2.80;;;12.60;99.90;;;12.95;50.75;100287.16;6071370;22;95591;-35
2024/04/25 07:48:10;;;;;;;3.20;2.13;;;12.50;99.90;;;13.08;51.08;100277.66;5996181;22;93849;-34
2024/04/25 07:50:58;;;;;;;7.63;2.93;;;12.70;99.90;;;13.08;50.24;100288.25;5924973;22;99808;-34
2024/04/25 07:53:25;;;;;;;4.87;2.57;;;12.80;99.90;;;13.08;49.15;100277.66;5949612;22;100146;-37
2024/04/25 07:56:26;;;;;;;5.17;2.20;;;12.80;99.90;;;13.08;49.58;100277.66;6071616;22;94021;-33
2024/04/25 07:59:00;;;;;;;4.40;2.20;;;12.70;99.90;;;13.14;50.33;100281.75;6021253;22;94500;-36
2024/04/25 08:01:29;;;;;;;3.80;2.27;;;12.90;99.90;;;13.19;49.96;100280.63;6168755;22;119712;-34
2024/04/25 08:04:10;;;;;;;4.17;2.57;;;13.00;99.90;;;13.18;50.11;100278.94;6178548;22;97154;-34
2024/04/25 08:06:53;;;;;;;7.60;3.03;;;13.00;99.90;;;12.98;50.98;100281.69;5935097;22;95377;-34
2024/04/25 08:13:34;;;;;;;6.83;2.90;;;13.00;99.90;;;13.10;50.79;100276.63;6339423;22;93256;-33
2024/04/25 08:16:23;;;;;;;8.10;2.90;;;12.90;99.90;;;13.19;50.51;100274.50;5778041;22;99158;-32
2024/04/25 08:22:33;;;;;;;8.67;3.30;;;13.10;99.90;;;13.27;50.90;100280.22;6183918;21;100701;-34
2024/04/25 08:24:59;;;;;;;4.27;3.47;;;13.10;99.90;;;13.42;50.08;100281.19;5907919;22;100257;-39
2024/04/25 08:27:33;;;;;;;8.90;3.80;;;13.20;99.90;;;13.44;49.70;100280.19;5907551;22;122148;-34
2024/04/25 08:29:59;;;;;;;6.27;2.73;;;13.30;99.90;;;13.15;49.01;100275.53;5920183;22;93689;-31
2024/04/25 08:33:12;;;;;;;6.67;3.53;;;13.10;99.90;;;13.19;50.67;100277.13;6110460;22;108019;-32
2024/04/25 08:35:46;;;;;;;6.10;3.10;;;12.90;99.90;;;13.34;49.51;100285.13;6035620;22;98592;-36
2024/04/25 08:38:14;;;;;;;7.70;3.03;;;13.10;99.90;;;13.36;50.26;100287.69;5940863;22;102017;-35
2024/04/25 08:44:05;;;;;;;5.77;2.80;;;13.20;99.90;;;13.43;49.82;100282.91;5820099;22;95668;-34
2024/04/25 08:46:49;;;;;;;4.57;2.60;;;13.10;99.90;;;13.56;49.81;100274.22;6190384;21;98086;-34
2024/04/25 08:49:29;;;;;;;4.50;2.30;;;13.40;99.90;;;13.57;49.69;100275.94;6073193;22;108778;-35
2024/04/25 08:52:23;;;;;;;6.73;2.60;;;13.40;99.90;;;13.52;48.44;100277.97;6056080;21;95782;-35
2024/04/25 08:55:48;;;;;;;2.40;1.37;;;13.40;99.90;;;13.45;50.33;100273.06;5746417;22;96766;-35
2024/04/25 08:58:59;;;;;;;;;;;;;;;;;;;;;
2024/04/25 09:01:45;;;;;;;3.27;1.63;;;13.30;99.90;;;13.67;49.78;100271.00;5867979;22;126348;-34
2024/04/25 09:04:39;;;;;;;4.50;2.10;;;13.50;99.90;;;13.70;47.94;100266.38;6043278;22;95612;-33
2024/04/25 09:07:53;;;;;;;7.97;1.80;;;13.60;99.90;;;13.65;48.86;100267.59;5979529;21;95177;-40
2024/04/25 09:10:39;;;;;;;4.27;1.73;;;13.50;99.90;;;13.67;49.58;100271.00;5846673;22;99560;-38
2024/04/25 09:13:32;;;;;;;3.73;2.20;;;13.50;99.90;;;13.64;46.89;100265.88;5974471;21;93958;-33
2024/04/25 09:16:24;;;;;;;6.00;1.97;;;13.60;99.90;;;13.54;46.79;100262.00;6043592;22;97898;-36
2024/04/25 09:19:12;;;;;;;5.40;1.70;;;13.50;99.90;;;13.52;46.34;100259.44;5899068;22;94033;-32
2024/04/25 09:21:48;;;;;;;3.57;1.83;;;13.40;99.90;;;13.28;47.96;100258.09;5959667;22;96713;-35
2024/04/25 09:24:27;;;;;;;4.60;1.93;;;13.10;99.90;;;13.35;48.44;100260.34;6046948;22;97416;-39
2024/04/25 09:27:07;;;;;;;2.13;1.40;;;13.20;99.90;;;13.51;48.51;100248.91;5913808;22;96685;-33
2024/04/25 09:29:40;;;;;;;5.70;2.53;;;13.30;99.90;;;13.40;46.58;100253.00;6104391;22;112881;-33
2024/04/25 09:32:18;;;;;;;6.63;2.30;;;13.40;99.90;;;13.57;47.19;100238.84;6101399;21;98968;-33
2024/04/25 09:34:50;;;;;;;7.00;1.63;;;13.50;99.90;;;13.43;46.54;100235.22;6036198;21;100322;-33
2024/04/25 09:37:25;;;;;;;3.63;1.70;;;13.30;99.90;;;13.57;49.03;100233.53;5976689;21;100709;-34
2024/04/25 09:40:22;;;;;;;4.07;1.43;;;13.40;99.90;;;13.53;46.96;100237.28;6115332;22;95926;-38
2024/04/25 09:42:59;;;;;;;4.70;2.30;;;13.40;99.90;;;13.27;48.19;100232.53;6079153;22;97475;-34
2024/04/25 09:46:26;;;;;;;3.70;1.60;;;13.10;99.90;;;13.12;48.08;100226.22;6153056;21;102284;-36
2024/04/25 09:49:20;;;;;;;2.30;1.53;;;12.90;99.90;;;13.13;49.22;100227.94;5957559;22;95408;-33
2024/04/25 09:52:18;;;;;;;7.97;2.40;;;12.90;99.90;;;13.22;48.06;100224.84;5928718;22;94659;-36
2024/04/25 09:55:11;;;;;;;3.77;1.80;;;13.00;99.90;;;13.28;48.94;100232.47;6051528;22;99852;-33
2024/04/25 09:58:04;;;;;;;10.47;1.83;;;13.00;99.90;;;13.42;45.46;100222.91;5678494;22;94468;-31
2024/04/25 10:01:22;;;;;;;4.70;1.80;;;13.40;99.90;;;13.40;45.52;100215.06;5810405;22;95299;-34
2024/04/25 10:04:30;;;;;;;3.87;1.43;;;13.30;99.90;;;13.33;46.71;100219.84;6025416;22;95054;-34
2024/04/25 10:07:05;;;;;;;3.33;1.37;;;13.30;99.90;;;13.23;44.65;100207.16;5982313;22;97055;-34
2024/04/25 10:09:55;;;;;;;2.13;1.07;;;13.20;99.90;;;13.16;45.11;100211.88;6027046;22;107065;-32
2024/04/25 10:12:34;;;;;;;8.00;1.70;;;13.20;99.90;;;13.13;46.30;100212.06;5984594;21;96486;-37
2024/04/25 10:15:50;;;;;;;4.23;1.50;;;13.10;99.90;;;13.01;45.48;100208.25;5979833;21;93490;-33
2024/04/25 10:19:07;;;;;;;4.67;1.87;;;13.00;99.90;;;13.20;48.41;100208.19;5897537;22;99906;-32
2024/04/25 10:21:50;;;;;;;3.13;1.17;;;13.00;99.90;;;12.97;46.52;100205.88;6132391;21;102481;-35
2024/04/25 10:24:21;;;;;;;2.63;1.37;;;12.90;99.90;;;13.19;48.46;100201.19;6069160;21;107578;-35
2024/04/25 10:26:55;;;;;;;3.23;1.67;;;13.00;99.90;;;13.20;47.91;100197.59;6089615;22;103235;-31
2024/04/25 10:30:10;;;;;;;5.17;1.37;;;13.10;99.90;;;13.31;45.79;100194.38;5925787;22;100166;-32
2024/04/25 10:32:53;;;;;;;1.20;1.07;;;13.20;99.90;;;13.32;46.89;100186.34;6064203;22;98574;-34
2024/04/25 10:35:47;;;;;;;2.87;1.20;;;13.20;99.90;;;13.27;45.55;100188.38;6005918;22;93632;-33
2024/04/25 10:38:35;;;;;;;4.53;1.33;;;13.30;99.90;;;13.30;47.39;100182.91;6011822;22;93703;-34
2024/04/25 10:41:10;;;;;;;3.47;1.40;;;13.20;99.90;;;13.39;47.66;100182.41;5958784;22;98992;-37
2024/04/25 10:43:45;;;;;;;1.80;1.10;;;13.30;99.90;;;13.28;46.67;100183.94;5958144;22;123230;-35
2024/04/25 10:46:28;;;;;;;2.70;1.23;;;13.20;99.90;;;13.14;47.74;100184.63;6069590;22;93810;-33
2024/04/25 10:49:21;;;;;;;8.00;1.00;;;13.20;99.90;;;13.32;46.55;100178.41;6004093;22;93186;-33
2024/04/25 10:51:51;;;;;;;5.07;1.27;;;13.30;99.90;;;13.37;47.49;100179.00;6140253;22;95331;-34
2024/04/25 10:54:35;;;;;;;6.80;1.40;;;13.30;99.90;;;13.52;46.37;100181.75;6026184;22;126473;-35
2024/04/25 10:57:32;;;;;;;2.43;0.80;;;13.50;99.90;;;13.67;47.11;100186.19;6156857;22;93723;-32
2024/04/25 11:00:06;;;;;;;3.13;1.00;;;13.60;99.90;;;13.53;44.93;100180.81;6207188;21;93580;-34
2024/04/25 11:02:35;;;;;;;3.67;1.20;;;13.50;99.90;;;13.56;46.23;100175.31;5971112;22;98968;-34
2024/04/25 11:05:13;;;;;;;2.70;1.33;;;13.50;99.90;;;13.70;47.81;100175.41;6086508;22;98008;-36
2024/04/25 11:07:55;;;;;;;3.03;1.00;;;13.70;99.90;;;13.48;46.08;100169.63;6117515;21;106572;-35
2024/04/25 11:10:38;;;;;;;4.10;1.37;;;13.50;99.90;;;13.46;44.03;100171.50;6026642;22;95673;-34
2024/04/25 11:13:24;;;;;;;4.43;1.30;;;13.50;99.90;;;12.41;45.42;100160.22;6093534;22;100392;-35
2024/04/25 11:16:50;;;;;;;2.87;1.27;;;12.50;99.90;;;12.50;49.88;100169.50;6046488;22;129768;-35
2024/04/25 11:20:07;;;;;;;2.13;1.00;;;12.20;99.90;;;12.62;49.36;100158.28;5770733;22;94661;-34
2024/04/25 11:23:32;;;;;;;1.97;0.60;;;12.50;99.90;;;12.57;44.94;100149.72;5851516;22;93613;-38
2024/04/25 11:26:34;;;;;;;6.03;1.20;;;12.70;99.90;;;12.82;46.11;100149.28;5760156;22;97003;-38
2024/04/25 11:29:35;;;;;;;1.13;0.90;;;12.80;99.90;;;12.95;46.41;100138.91;6009997;22;100015;-34
2024/04/25 11:32:23;;;;;;;2.47;0.97;;;13.00;99.90;;;12.76;44.35;100145.19;5926488;22;95639;-35
2024/04/25 11:42:47;;;;;;;4.17;1.20;;;12.70;99.90;;;12.60;45.83;100144.28;6190396;22;93214;-33
2024/04/25 11:45:13;;;;;;;2.53;0.83;;;12.70;99.90;;;12.51;43.60;100144.75;6152790;22;94030;-36
2024/04/25 11:48:21;;;;;;;5.60;1.40;;;12.70;99.90;;;12.80;46.39;100136.16;6187856;22;93866;-32
2024/04/25 11:51:02;;;;;;;3.50;1.27;;;12.90;99.90;;;12.92;43.73;100134.66;6165064;22;99756;-37
2024/04/25 11:53:28;;;;;;;1.63;1.13;;;13.00;99.90;;;13.08;47.05;100134.66;6159573;22;100247;-34
2024/04/25 11:56:10;;;;;;;2.83;1.50;;;13.10;99.90;;;13.08;43.75;100134.66;6164568;22;97674;-34
2024/04/25 11:58:36;;;;;;;1.63;1.13;;;13.20;99.90;;;13.04;42.80;100133.13;6153836;22;95379;-34
2024/04/25 12:01:07;;;;;;;3.30;1.77;;;13.30;99.90;;;13.09;45.45;100139.03;6016453;22;113841;-32
2024/04/25 12:03:38;;;;;;;4.40;1.30;;;13.20;99.90;;;13.23;43.91;100139.16;6150409;22;99876;-32
2024/04/25 12:10:59;;;;;;;3.30;1.33;;;13.50;99.90;;;13.11;42.19;100142.44;5999735;22;93557;-33
2024/04/25 12:13:44;;;;;;;5.17;1.60;;;13.30;99.90;;;13.03;42.62;100136.72;5856251;22;100463;-34
2024/04/25 12:16:29;;;;;;;2.30;1.27;;;13.10;99.90;;;12.95;45.11;100133.63;6081690;22;101232;-32
2024/04/25 12:19:12;;;;;;;3.40;1.50;;;13.00;99.90;;;13.11;42.87;100130.06;6080797;22;93454;-35
2024/04/25 12:21:43;;;;;;;5.07;1.93;;;13.20;99.90;;;13.17;42.97;100128.88;5910141;22;94994;-35
2024/04/25 12:24:09;;;;;;;4.07;1.57;;;13.30;99.90;;;13.23;44.10;100133.88;6139903;22;97359;-37
2024/04/25 12:27:29;;;;;;;4.37;1.40;;;13.30;99.90;;;13.46;45.91;100134.41;6165776;22;119848;-33
2024/04/25 12:30:00;;;;;;;3.90;1.20;;;13.50;99.90;;;13.47;46.08;100130.81;5928324;22;93736;-36
2024/04/25 12:32:30;;;;;;;3.13;1.20;;;13.40;99.90;;;13.40;42.00;100125.84;6039253;21;93504;-38
2024/04/25 12:44:55;;;;;;;1.20;1.10;;;13.50;99.90;;;13.19;43.48;100136.78;6192514;22;93053;-32
2024/04/25 12:48:17;;;;;;;2.87;1.10;;;13.30;99.90;;;13.40;44.05;100127.63;6070700;22;117393;-35
2024/04/25 12:50:46;;;;;;;1.70;0.93;;;13.40;99.90;;;13.44;44.63;100120.38;6050825;22;94730;-36
2024/04/25 12:57:24;;;;;;;3.17;1.07;;;13.50;99.90;;;13.80;45.51;100123.59;6114278;21;94476;-32
2024/04/25 13:04:46;;;;;;;0.80;0.50;;;13.80;99.90;;;13.81;41.97;100124.44;6289395;21;100586;-35
2024/04/25 13:07:15;;;;;;;2.63;0.70;;;13.80;99.90;;;13.75;39.07;100120.38;6035882;22;94259;-37
2024/04/25 13:13:31;;;;;;;3.50;0.80;;;13.80;99.90;;;13.74;41.26;100115.97;6216762;22;93995;-33
2024/04/25 13:16:01;;;;;;;1.57;0.90;;;13.70;99.90;;;13.78;44.12;100104.28;6041679;22;101261;-35
2024/04/25 13:23:03;;;;;;;3.23;0.97;;;13.80;98.90;;;13.84;43.93;100103.91;6245618;22;93514;-32
2024/04/25 13:25:39;;;;;;;2.30;0.60;;;13.70;99.90;;;13.69;38.78;100110.94;6061340;22;98816;-32
2024/04/25 13:28:17;;;;;;;2.00;0.87;;;13.70;99.40;;;13.69;40.92;100104.78;6027984;22;100101;-35
2024/04/25 13:30:42;;;;;;;3.40;1.00;;;13.60;99.90;;;13.84;44.02;100103.91;6090980;22;93710;-37
2024/04/25 13:33:11;;;;;;;1.90;0.83;;;13.80;99.90;;;14.00;44.67;100101.22;6165513;22;93332;-33
2024/04/25 13:35:43;;;;;;;2.90;1.00;;;14.00;99.90;;;14.10;41.51;100093.59;6204922;22;93976;-34